sensor_id;sensor_type;location;lat;lon;timestamp;P1;P2;P0
62054;PMS5003;48653;51.742;-1.256;2023-01-23T00:03:46;151;126;
62054;PMS5003;48653;51.742;-1.256;2023-01-23T00:06:12;144;124;
62054;PMS5003;48653;51.742;-1.256;2023-01-23T00:08:38;137;114;
62054;PMS5003;48653;51.742;-1.256;2023-01-23T00:11:04;129;112;
62054;PMS5003;48653;51.742;-1.256;2023-01-23T00:13:29;136;115;
62054;PMS5003;48653;51.742;-1.256;2023-01-23T00:15:54;133;108;
62054;PMS5003;48653;51.742;-1.256;2023-01-23T00:18:20;135;108;
62054;PMS5003;48653;51.742;-1.256;2023-01-23T00:25:36;119;104;
62054;PMS5003;48653;51.742;-1.256;2023-01-23T00:28:02;113;103;
62054;PMS5003;48653;51.742;-1.256;2023-01-23T00:30:28;122;106;
62054;PMS5003;48653;51.742;-1.256;2023-01-23T00:32:53;116;99;
62054;PMS5003;48653;51.742;-1.256;2023-01-23T00:35:18;120;104;
62054;PMS5003;48653;51.742;-1.256;2023-01-23T00:37:43;119;103;
62054;PMS5003;48653;51.742;-1.256;2023-01-23T00:40:09;116;96;
62054;PMS5003;48653;51.742;-1.256;2023-01-23T00:42:34;122;100;
62054;PMS5003;48653;51.742;-1.256;2023-01-23T00:44:59;109;92;
62054;PMS5003;48653;51.742;-1.256;2023-01-23T00:47:24;118;93;
62054;PMS5003;48653;51.742;-1.256;2023-01-23T00:49:50;118;96;
62054;PMS5003;48653;51.742;-1.256;2023-01-23T00:52:16;99;90;
62054;PMS5003;48653;51.742;-1.256;2023-01-23T00:54:41;100;88;
62054;PMS5003;48653;51.742;-1.256;2023-01-23T00:57:06;109;90;
62054;PMS5003;48653;51.742;-1.256;2023-01-23T00:59:31;110;87;
62054;PMS5003;48653;51.742;-1.256;2023-01-23T01:01:58;100;82;
62054;PMS5003;48653;51.742;-1.256;2023-01-23T01:04:22;111;91;
62054;PMS5003;48653;51.742;-1.256;2023-01-23T01:06:47;99;89;
62054;PMS5003;48653;51.742;-1.256;2023-01-23T01:09:12;98;88;
62054;PMS5003;48653;51.742;-1.256;2023-01-23T01:11:38;101;93;
62054;PMS5003;48653;51.742;-1.256;2023-01-23T01:14:04;100;80;
62054;PMS5003;48653;51.742;-1.256;2023-01-23T01:16:29;109;88;
62054;PMS5003;48653;51.742;-1.256;2023-01-23T01:18:55;106;90;
62054;PMS5003;48653;51.742;-1.256;2023-01-23T01:21:20;92;82;
62054;PMS5003;48653;51.742;-1.256;2023-01-23T01:23:45;100;89;
62054;PMS5003;48653;51.742;-1.256;2023-01-23T01:26:11;96;82;
62054;PMS5003;48653;51.742;-1.256;2023-01-23T01:28:37;94;81;
62054;PMS5003;48653;51.742;-1.256;2023-01-23T01:31:03;92;76;
62054;PMS5003;48653;51.742;-1.256;2023-01-23T01:33:27;88;77;
62054;PMS5003;48653;51.742;-1.256;2023-01-23T01:35:53;90;82;
62054;PMS5003;48653;51.742;-1.256;2023-01-23T01:38:18;93;72;
62054;PMS5003;48653;51.742;-1.256;2023-01-23T01:40:44;90;70;
62054;PMS5003;48653;51.742;-1.256;2023-01-23T01:43:16;87;70;
62054;PMS5003;48653;51.742;-1.256;2023-01-23T01:48:00;85;69;
62054;PMS5003;48653;51.742;-1.256;2023-01-23T01:50:25;83;72;
62054;PMS5003;48653;51.742;-1.256;2023-01-23T01:52:51;80;67;
62054;PMS5003;48653;51.742;-1.256;2023-01-23T01:55:16;76;66;
62054;PMS5003;48653;51.742;-1.256;2023-01-23T01:57:42;86;74;
62054;PMS5003;48653;51.742;-1.256;2023-01-23T02:00:08;82;65;
62054;PMS5003;48653;51.742;-1.256;2023-01-23T02:02:33;83;71;
62054;PMS5003;48653;51.742;-1.256;2023-01-23T02:04:58;77;66;
62054;PMS5003;48653;51.742;-1.256;2023-01-23T02:07:23;78;66;
62054;PMS5003;48653;51.742;-1.256;2023-01-23T02:09:48;87;68;
62054;PMS5003;48653;51.742;-1.256;2023-01-23T02:12:13;78;66;
62054;PMS5003;48653;51.742;-1.256;2023-01-23T02:14:39;82;72;
62054;PMS5003;48653;51.742;-1.256;2023-01-23T02:17:04;86;74;
62054;PMS5003;48653;51.742;-1.256;2023-01-23T02:19:33;81;71;
62054;PMS5003;48653;51.742;-1.256;2023-01-23T02:21:58;84;77;
62054;PMS5003;48653;51.742;-1.256;2023-01-23T02:24:22;100;88;
62054;PMS5003;48653;51.742;-1.256;2023-01-23T02:26:46;99;83;
62054;PMS5003;48653;51.742;-1.256;2023-01-23T02:29:12;97;75;
62054;PMS5003;48653;51.742;-1.256;2023-01-23T02:31:36;99;80;
62054;PMS5003;48653;51.742;-1.256;2023-01-23T02:34:02;83;73;
62054;PMS5003;48653;51.742;-1.256;2023-01-23T02:36:29;85;73;
62054;PMS5003;48653;51.742;-1.256;2023-01-23T02:38:56;79;70;
62054;PMS5003;48653;51.742;-1.256;2023-01-23T02:41:20;83;72;
62054;PMS5003;48653;51.742;-1.256;2023-01-23T02:43:44;88;72;
62054;PMS5003;48653;51.742;-1.256;2023-01-23T02:46:10;81;71;
62054;PMS5003;48653;51.742;-1.256;2023-01-23T02:48:35;82;73;
62054;PMS5003;48653;51.742;-1.256;2023-01-23T02:51:01;82;75;
62054;PMS5003;48653;51.742;-1.256;2023-01-23T02:53:26;86;75;
62054;PMS5003;48653;51.742;-1.256;2023-01-23T02:55:51;76;69;
62054;PMS5003;48653;51.742;-1.256;2023-01-23T02:58:16;91;76;
62054;PMS5003;48653;51.742;-1.256;2023-01-23T03:00:42;78;71;
62054;PMS5003;48653;51.742;-1.256;2023-01-23T03:03:08;81;69;
62054;PMS5003;48653;51.742;-1.256;2023-01-23T03:05:33;87;76;
62054;PMS5003;48653;51.742;-1.256;2023-01-23T03:07:59;82;70;
62054;PMS5003;48653;51.742;-1.256;2023-01-23T03:10:24;78;66;
62054;PMS5003;48653;51.742;-1.256;2023-01-23T03:12:50;80;69;
62054;PMS5003;48653;51.742;-1.256;2023-01-23T03:15:15;85;72;
62054;PMS5003;48653;51.742;-1.256;2023-01-23T03:17:41;79;70;
62054;PMS5003;48653;51.742;-1.256;2023-01-23T03:20:07;86;75;
62054;PMS5003;48653;51.742;-1.256;2023-01-23T03:22:32;99;83;
62054;PMS5003;48653;51.742;-1.256;2023-01-23T03:24:57;92;76;
62054;PMS5003;48653;51.742;-1.256;2023-01-23T03:27:23;74;67;
62054;PMS5003;48653;51.742;-1.256;2023-01-23T03:29:48;81;65;
62054;PMS5003;48653;51.742;-1.256;2023-01-23T03:32:14;83;68;
62054;PMS5003;48653;51.742;-1.256;2023-01-23T03:34:39;78;71;
62054;PMS5003;48653;51.742;-1.256;2023-01-23T03:37:05;74;64;
62054;PMS5003;48653;51.742;-1.256;2023-01-23T03:39:30;78;74;
62054;PMS5003;48653;51.742;-1.256;2023-01-23T03:41:56;79;68;
62054;PMS5003;48653;51.742;-1.256;2023-01-23T03:44:21;69;65;
62054;PMS5003;48653;51.742;-1.256;2023-01-23T03:46:48;75;65;
62054;PMS5003;48653;51.742;-1.256;2023-01-23T03:49:12;84;70;
62054;PMS5003;48653;51.742;-1.256;2023-01-23T03:51:38;80;75;
62054;PMS5003;48653;51.742;-1.256;2023-01-23T03:54:04;87;66;
62054;PMS5003;48653;51.742;-1.256;2023-01-23T03:56:29;77;62;
62054;PMS5003;48653;51.742;-1.256;2023-01-23T03:58:55;71;67;
62054;PMS5003;48653;51.742;-1.256;2023-01-23T04:01:20;92;69;
62054;PMS5003;48653;51.742;-1.256;2023-01-23T04:03:45;73;64;
62054;PMS5003;48653;51.742;-1.256;2023-01-23T04:06:11;91;69;
62054;PMS5003;48653;51.742;-1.256;2023-01-23T04:08:36;84;71;
62054;PMS5003;48653;51.742;-1.256;2023-01-23T04:11:03;85;69;
62054;PMS5003;48653;51.742;-1.256;2023-01-23T04:13:26;79;64;
62054;PMS5003;48653;51.742;-1.256;2023-01-23T04:15:51;86;68;
62054;PMS5003;48653;51.742;-1.256;2023-01-23T04:18:17;76;63;
62054;PMS5003;48653;51.742;-1.256;2023-01-23T04:20:43;80;70;
62054;PMS5003;48653;51.742;-1.256;2023-01-23T04:23:08;82;70;
62054;PMS5003;48653;51.742;-1.256;2023-01-23T04:25:33;81;73;
62054;PMS5003;48653;51.742;-1.256;2023-01-23T04:27:59;71;58;
62054;PMS5003;48653;51.742;-1.256;2023-01-23T04:30:24;85;67;
62054;PMS5003;48653;51.742;-1.256;2023-01-23T04:32:50;82;68;
62054;PMS5003;48653;51.742;-1.256;2023-01-23T04:35:15;81;68;
62054;PMS5003;48653;51.742;-1.256;2023-01-23T04:37:40;79;64;
62054;PMS5003;48653;51.742;-1.256;2023-01-23T04:40:06;72;64;
62054;PMS5003;48653;51.742;-1.256;2023-01-23T04:42:32;83;66;
62054;PMS5003;48653;51.742;-1.256;2023-01-23T04:44:58;87;67;
62054;PMS5003;48653;51.742;-1.256;2023-01-23T04:47:23;76;69;
62054;PMS5003;48653;51.742;-1.256;2023-01-23T04:49:48;82;74;
62054;PMS5003;48653;51.742;-1.256;2023-01-23T04:52:13;82;64;
62054;PMS5003;48653;51.742;-1.256;2023-01-23T04:54:39;85;72;
62054;PMS5003;48653;51.742;-1.256;2023-01-23T04:57:04;78;71;
62054;PMS5003;48653;51.742;-1.256;2023-01-23T05:01:54;84;68;
62054;PMS5003;48653;51.742;-1.256;2023-01-23T05:04:20;84;68;
62054;PMS5003;48653;51.742;-1.256;2023-01-23T05:06:46;71;63;
62054;PMS5003;48653;51.742;-1.256;2023-01-23T05:09:11;75;67;
62054;PMS5003;48653;51.742;-1.256;2023-01-23T05:11:36;83;69;
62054;PMS5003;48653;51.742;-1.256;2023-01-23T05:14:01;78;71;
62054;PMS5003;48653;51.742;-1.256;2023-01-23T05:16:27;80;68;
62054;PMS5003;48653;51.742;-1.256;2023-01-23T05:18:52;83;71;
62054;PMS5003;48653;51.742;-1.256;2023-01-23T05:21:17;76;70;
62054;PMS5003;48653;51.742;-1.256;2023-01-23T05:23:43;74;71;
62054;PMS5003;48653;51.742;-1.256;2023-01-23T05:26:08;88;73;
62054;PMS5003;48653;51.742;-1.256;2023-01-23T05:28:33;95;73;
62054;PMS5003;48653;51.742;-1.256;2023-01-23T05:30:59;79;74;
62054;PMS5003;48653;51.742;-1.256;2023-01-23T05:33:24;90;70;
62054;PMS5003;48653;51.742;-1.256;2023-01-23T05:35:50;80;62;
62054;PMS5003;48653;51.742;-1.256;2023-01-23T05:38:15;84;71;
62054;PMS5003;48653;51.742;-1.256;2023-01-23T05:40:41;82;74;
62054;PMS5003;48653;51.742;-1.256;2023-01-23T05:45:31;84;72;
62054;PMS5003;48653;51.742;-1.256;2023-01-23T05:48:02;90;76;
62054;PMS5003;48653;51.742;-1.256;2023-01-23T05:50:22;78;72;
62054;PMS5003;48653;51.742;-1.256;2023-01-23T05:52:48;92;76;
62054;PMS5003;48653;51.742;-1.256;2023-01-23T05:55:13;88;72;
62054;PMS5003;48653;51.742;-1.256;2023-01-23T05:57:39;84;69;
62054;PMS5003;48653;51.742;-1.256;2023-01-23T06:00:04;84;75;
62054;PMS5003;48653;51.742;-1.256;2023-01-23T06:02:30;100;79;
62054;PMS5003;48653;51.742;-1.256;2023-01-23T06:04:55;94;74;
62054;PMS5003;48653;51.742;-1.256;2023-01-23T06:07:20;97;75;
62054;PMS5003;48653;51.742;-1.256;2023-01-23T06:09:46;85;70;
62054;PMS5003;48653;51.742;-1.256;2023-01-23T06:12:11;89;76;
62054;PMS5003;48653;51.742;-1.256;2023-01-23T06:14:37;91;74;
62054;PMS5003;48653;51.742;-1.256;2023-01-23T06:17:02;82;77;
62054;PMS5003;48653;51.742;-1.256;2023-01-23T06:19:27;89;77;
62054;PMS5003;48653;51.742;-1.256;2023-01-23T06:21:53;89;77;
62054;PMS5003;48653;51.742;-1.256;2023-01-23T06:24:18;89;75;
62054;PMS5003;48653;51.742;-1.256;2023-01-23T06:26:43;86;70;
62054;PMS5003;48653;51.742;-1.256;2023-01-23T06:29:08;86;72;
62054;PMS5003;48653;51.742;-1.256;2023-01-23T06:31:34;108;87;
62054;PMS5003;48653;51.742;-1.256;2023-01-23T06:33:59;96;77;
62054;PMS5003;48653;51.742;-1.256;2023-01-23T06:36:25;98;82;
62054;PMS5003;48653;51.742;-1.256;2023-01-23T06:38:50;96;75;
62054;PMS5003;48653;51.742;-1.256;2023-01-23T06:41:16;90;76;
62054;PMS5003;48653;51.742;-1.256;2023-01-23T06:43:41;101;81;
62054;PMS5003;48653;51.742;-1.256;2023-01-23T06:46:06;87;76;
62054;PMS5003;48653;51.742;-1.256;2023-01-23T06:48:32;98;81;
62054;PMS5003;48653;51.742;-1.256;2023-01-23T06:50:58;90;79;
62054;PMS5003;48653;51.742;-1.256;2023-01-23T06:53:22;92;78;
62054;PMS5003;48653;51.742;-1.256;2023-01-23T06:55:48;91;84;
62054;PMS5003;48653;51.742;-1.256;2023-01-23T06:58:13;90;80;
62054;PMS5003;48653;51.742;-1.256;2023-01-23T07:00:39;95;81;
62054;PMS5003;48653;51.742;-1.256;2023-01-23T07:03:04;91;76;
62054;PMS5003;48653;51.742;-1.256;2023-01-23T07:05:31;90;73;
62054;PMS5003;48653;51.742;-1.256;2023-01-23T07:07:55;90;75;
62054;PMS5003;48653;51.742;-1.256;2023-01-23T07:10:21;99;77;
62054;PMS5003;48653;51.742;-1.256;2023-01-23T07:12:46;88;75;
62054;PMS5003;48653;51.742;-1.256;2023-01-23T07:15:11;90;77;
62054;PMS5003;48653;51.742;-1.256;2023-01-23T07:17:37;92;83;
62054;PMS5003;48653;51.742;-1.256;2023-01-23T07:20:03;95;81;
62054;PMS5003;48653;51.742;-1.256;2023-01-23T07:22:28;93;79;
62054;PMS5003;48653;51.742;-1.256;2023-01-23T07:24:54;78;72;
62054;PMS5003;48653;51.742;-1.256;2023-01-23T07:27:20;90;75;
62054;PMS5003;48653;51.742;-1.256;2023-01-23T07:29:45;87;72;
62054;PMS5003;48653;51.742;-1.256;2023-01-23T07:32:10;96;82;
62054;PMS5003;48653;51.742;-1.256;2023-01-23T07:34:35;91;80;
62054;PMS5003;48653;51.742;-1.256;2023-01-23T07:37:01;84;76;
62054;PMS5003;48653;51.742;-1.256;2023-01-23T07:39:27;92;76;
62054;PMS5003;48653;51.742;-1.256;2023-01-23T07:41:52;89;77;
62054;PMS5003;48653;51.742;-1.256;2023-01-23T07:44:18;82;72;
62054;PMS5003;48653;51.742;-1.256;2023-01-23T07:46:43;97;74;
62054;PMS5003;48653;51.742;-1.256;2023-01-23T07:49:09;97;76;
62054;PMS5003;48653;51.742;-1.256;2023-01-23T07:51:34;102;79;
62054;PMS5003;48653;51.742;-1.256;2023-01-23T07:53:59;93;76;
62054;PMS5003;48653;51.742;-1.256;2023-01-23T07:56:25;89;80;
62054;PMS5003;48653;51.742;-1.256;2023-01-23T07:58:50;90;76;
62054;PMS5003;48653;51.742;-1.256;2023-01-23T08:03:41;101;81;
62054;PMS5003;48653;51.742;-1.256;2023-01-23T08:06:06;103;84;
62054;PMS5003;48653;51.742;-1.256;2023-01-23T08:08:32;107;89;
62054;PMS5003;48653;51.742;-1.256;2023-01-23T08:10:57;96;90;
62054;PMS5003;48653;51.742;-1.256;2023-01-23T08:13:22;107;89;
62054;PMS5003;48653;51.742;-1.256;2023-01-23T08:15:48;107;90;
62054;PMS5003;48653;51.742;-1.256;2023-01-23T08:18:13;104;85;
62054;PMS5003;48653;51.742;-1.256;2023-01-23T08:20:39;97;84;
62054;PMS5003;48653;51.742;-1.256;2023-01-23T08:23:04;102;85;
62054;PMS5003;48653;51.742;-1.256;2023-01-23T08:25:29;109;94;
62054;PMS5003;48653;51.742;-1.256;2023-01-23T08:27:55;93;84;
62054;PMS5003;48653;51.742;-1.256;2023-01-23T08:30:21;93;77;
62054;PMS5003;48653;51.742;-1.256;2023-01-23T08:32:47;91;83;
62054;PMS5003;48653;51.742;-1.256;2023-01-23T08:35:12;98;78;
62054;PMS5003;48653;51.742;-1.256;2023-01-23T08:37:38;111;87;
62054;PMS5003;48653;51.742;-1.256;2023-01-23T08:40:04;93;89;
62054;PMS5003;48653;51.742;-1.256;2023-01-23T08:42:29;99;88;
62054;PMS5003;48653;51.742;-1.256;2023-01-23T08:44:55;108;91;
62054;PMS5003;48653;51.742;-1.256;2023-01-23T08:47:20;95;83;
62054;PMS5003;48653;51.742;-1.256;2023-01-23T08:49:45;104;85;
62054;PMS5003;48653;51.742;-1.256;2023-01-23T08:52:11;107;97;
62054;PMS5003;48653;51.742;-1.256;2023-01-23T08:54:35;102;88;
62054;PMS5003;48653;51.742;-1.256;2023-01-23T08:57:01;110;97;
62054;PMS5003;48653;51.742;-1.256;2023-01-23T08:59:27;98;84;
62054;PMS5003;48653;51.742;-1.256;2023-01-23T09:01:52;100;84;
62054;PMS5003;48653;51.742;-1.256;2023-01-23T09:04:18;98;87;
62054;PMS5003;48653;51.742;-1.256;2023-01-23T09:06:43;99;82;
62054;PMS5003;48653;51.742;-1.256;2023-01-23T09:09:09;99;85;
62054;PMS5003;48653;51.742;-1.256;2023-01-23T09:11:34;101;82;
62054;PMS5003;48653;51.742;-1.256;2023-01-23T09:13:59;112;90;
62054;PMS5003;48653;51.742;-1.256;2023-01-23T09:16:24;104;88;
62054;PMS5003;48653;51.742;-1.256;2023-01-23T09:18:50;95;83;
62054;PMS5003;48653;51.742;-1.256;2023-01-23T09:21:15;106;91;
62054;PMS5003;48653;51.742;-1.256;2023-01-23T09:23:41;110;92;
62054;PMS5003;48653;51.742;-1.256;2023-01-23T09:26:07;95;88;
62054;PMS5003;48653;51.742;-1.256;2023-01-23T09:28:31;96;88;
62054;PMS5003;48653;51.742;-1.256;2023-01-23T09:31:00;110;85;
62054;PMS5003;48653;51.742;-1.256;2023-01-23T09:33:22;107;91;
62054;PMS5003;48653;51.742;-1.256;2023-01-23T09:35:50;102;89;
62054;PMS5003;48653;51.742;-1.256;2023-01-23T09:38:13;111;91;
62054;PMS5003;48653;51.742;-1.256;2023-01-23T09:40:42;108;84;
62054;PMS5003;48653;51.742;-1.256;2023-01-23T09:43:07;97;84;
62054;PMS5003;48653;51.742;-1.256;2023-01-23T09:45:29;96;91;
62054;PMS5003;48653;51.742;-1.256;2023-01-23T09:47:56;102;89;
62054;PMS5003;48653;51.742;-1.256;2023-01-23T09:50:22;108;89;
62054;PMS5003;48653;51.742;-1.256;2023-01-23T09:52:48;102;88;
62054;PMS5003;48653;51.742;-1.256;2023-01-23T09:55:12;108;88;
62054;PMS5003;48653;51.742;-1.256;2023-01-23T09:57:38;101;87;
62054;PMS5003;48653;51.742;-1.256;2023-01-23T10:00:03;104;88;
62054;PMS5003;48653;51.742;-1.256;2023-01-23T10:02:27;109;92;
62054;PMS5003;48653;51.742;-1.256;2023-01-23T10:04:53;104;92;
62054;PMS5003;48653;51.742;-1.256;2023-01-23T10:07:22;100;86;
62054;PMS5003;48653;51.742;-1.256;2023-01-23T10:09:46;97;82;
62054;PMS5003;48653;51.742;-1.256;2023-01-23T10:12:11;97;87;
62054;PMS5003;48653;51.742;-1.256;2023-01-23T10:14:39;108;86;
62054;PMS5003;48653;51.742;-1.256;2023-01-23T10:17:02;79;75;
62054;PMS5003;48653;51.742;-1.256;2023-01-23T10:21:50;103;89;
62054;PMS5003;48653;51.742;-1.256;2023-01-23T10:24:22;91;80;
62054;PMS5003;48653;51.742;-1.256;2023-01-23T10:26:42;92;80;
62054;PMS5003;48653;51.742;-1.256;2023-01-23T10:29:10;101;83;
62054;PMS5003;48653;51.742;-1.256;2023-01-23T10:31:34;91;81;
62054;PMS5003;48653;51.742;-1.256;2023-01-23T10:34:00;99;84;
62054;PMS5003;48653;51.742;-1.256;2023-01-23T10:36:24;93;77;
62054;PMS5003;48653;51.742;-1.256;2023-01-23T10:38:48;98;83;
62054;PMS5003;48653;51.742;-1.256;2023-01-23T10:41:14;90;76;
62054;PMS5003;48653;51.742;-1.256;2023-01-23T10:43:39;94;81;
62054;PMS5003;48653;51.742;-1.256;2023-01-23T10:46:07;102;80;
62054;PMS5003;48653;51.742;-1.256;2023-01-23T10:50:54;74;66;
62054;PMS5003;48653;51.742;-1.256;2023-01-23T10:53:20;82;71;
62054;PMS5003;48653;51.742;-1.256;2023-01-23T10:55:45;81;68;
62054;PMS5003;48653;51.742;-1.256;2023-01-23T10:58:26;77;61;
62054;PMS5003;48653;51.742;-1.256;2023-01-23T11:00:36;70;59;
62054;PMS5003;48653;51.742;-1.256;2023-01-23T11:05:33;59;53;
62054;PMS5003;48653;51.742;-1.256;2023-01-23T11:07:53;64;54;
62054;PMS5003;48653;51.742;-1.256;2023-01-23T11:10:20;65;61;
62054;PMS5003;48653;51.742;-1.256;2023-01-23T11:12:45;68;60;
62054;PMS5003;48653;51.742;-1.256;2023-01-23T11:15:11;63;53;
62054;PMS5003;48653;51.742;-1.256;2023-01-23T11:17:34;67;58;
62054;PMS5003;48653;51.742;-1.256;2023-01-23T11:20:00;69;59;
62054;PMS5003;48653;51.742;-1.256;2023-01-23T11:22:27;66;57;
62054;PMS5003;48653;51.742;-1.256;2023-01-23T11:24:51;66;55;
62054;PMS5003;48653;51.742;-1.256;2023-01-23T11:27:17;59;53;
62054;PMS5003;48653;51.742;-1.256;2023-01-23T11:29:47;64;57;
62054;PMS5003;48653;51.742;-1.256;2023-01-23T11:32:09;58;52;
62054;PMS5003;48653;51.742;-1.256;2023-01-23T11:34:33;59;56;
62054;PMS5003;48653;51.742;-1.256;2023-01-23T11:37:00;63;56;
62054;PMS5003;48653;51.742;-1.256;2023-01-23T11:39:28;69;58;
62054;PMS5003;48653;51.742;-1.256;2023-01-23T11:41:48;57;55;
62054;PMS5003;48653;51.742;-1.256;2023-01-23T11:44:14;66;60;
62054;PMS5003;48653;51.742;-1.256;2023-01-23T11:46:42;63;60;
62054;PMS5003;48653;51.742;-1.256;2023-01-23T11:51:31;59;54;
62054;PMS5003;48653;51.742;-1.256;2023-01-23T11:53:57;60;53;
62054;PMS5003;48653;51.742;-1.256;2023-01-23T11:56:24;64;54;
62054;PMS5003;48653;51.742;-1.256;2023-01-23T11:58:51;62;55;
62054;PMS5003;48653;51.742;-1.256;2023-01-23T12:01:12;53;47;
62054;PMS5003;48653;51.742;-1.256;2023-01-23T12:03:43;50;49;
62054;PMS5003;48653;51.742;-1.256;2023-01-23T12:06:11;48;44;
62054;PMS5003;48653;51.742;-1.256;2023-01-23T12:08:30;50;45;
62054;PMS5003;48653;51.742;-1.256;2023-01-23T12:10:56;56;45;
62054;PMS5003;48653;51.742;-1.256;2023-01-23T12:13:23;50;47;
62054;PMS5003;48653;51.742;-1.256;2023-01-23T12:15:45;57;53;
62054;PMS5003;48653;51.742;-1.256;2023-01-23T12:18:13;44;41;
62054;PMS5003;48653;51.742;-1.256;2023-01-23T12:20:38;54;47;
62054;PMS5003;48653;51.742;-1.256;2023-01-23T12:23:05;50;45;
62054;PMS5003;48653;51.742;-1.256;2023-01-23T12:25:28;43;37;
62054;PMS5003;48653;51.742;-1.256;2023-01-23T12:27:53;42;39;
62054;PMS5003;48653;51.742;-1.256;2023-01-23T12:30:21;41;38;
62054;PMS5003;48653;51.742;-1.256;2023-01-23T12:32:44;43;38;
62054;PMS5003;48653;51.742;-1.256;2023-01-23T12:35:10;35;35;
62054;PMS5003;48653;51.742;-1.256;2023-01-23T12:37:39;37;35;
62054;PMS5003;48653;51.742;-1.256;2023-01-23T12:39:59;36;33;
62054;PMS5003;48653;51.742;-1.256;2023-01-23T12:42:25;28;26;
62054;PMS5003;48653;51.742;-1.256;2023-01-23T12:44:52;30;27;
62054;PMS5003;48653;51.742;-1.256;2023-01-23T12:47:15;31;29;
62054;PMS5003;48653;51.742;-1.256;2023-01-23T12:49:41;28;26;
62054;PMS5003;48653;51.742;-1.256;2023-01-23T12:52:06;28;21;
62054;PMS5003;48653;51.742;-1.256;2023-01-23T12:54:34;24;19;
62054;PMS5003;48653;51.742;-1.256;2023-01-23T12:56:56;26;22;
62054;PMS5003;48653;51.742;-1.256;2023-01-23T12:59:23;26;25;
62054;PMS5003;48653;51.742;-1.256;2023-01-23T13:01:50;21;20;
62054;PMS5003;48653;51.742;-1.256;2023-01-23T13:04:17;17;17;
62054;PMS5003;48653;51.742;-1.256;2023-01-23T13:06:49;24;21;
62054;PMS5003;48653;51.742;-1.256;2023-01-23T13:09:05;21;18;
62054;PMS5003;48653;51.742;-1.256;2023-01-23T13:11:32;20;19;
62054;PMS5003;48653;51.742;-1.256;2023-01-23T13:13:55;22;21;
62054;PMS5003;48653;51.742;-1.256;2023-01-23T13:16:22;23;22;
62054;PMS5003;48653;51.742;-1.256;2023-01-23T13:18:51;25;23;
62054;PMS5003;48653;51.742;-1.256;2023-01-23T13:21:11;27;24;
62054;PMS5003;48653;51.742;-1.256;2023-01-23T13:23:36;24;23;
62054;PMS5003;48653;51.742;-1.256;2023-01-23T13:26:11;25;20;
62054;PMS5003;48653;51.742;-1.256;2023-01-23T13:28:29;26;23;
62054;PMS5003;48653;51.742;-1.256;2023-01-23T13:30:59;31;23;
62054;PMS5003;48653;51.742;-1.256;2023-01-23T13:35:50;30;27;
62054;PMS5003;48653;51.742;-1.256;2023-01-23T13:40:36;31;25;
62054;PMS5003;48653;51.742;-1.256;2023-01-23T13:45:27;28;28;
62054;PMS5003;48653;51.742;-1.256;2023-01-23T13:47:56;28;24;
62054;PMS5003;48653;51.742;-1.256;2023-01-23T13:50:18;30;26;
62054;PMS5003;48653;51.742;-1.256;2023-01-23T13:52:43;33;24;
62054;PMS5003;48653;51.742;-1.256;2023-01-23T13:55:13;26;21;
62054;PMS5003;48653;51.742;-1.256;2023-01-23T13:57:34;32;27;
62054;PMS5003;48653;51.742;-1.256;2023-01-23T14:00:04;26;26;
62054;PMS5003;48653;51.742;-1.256;2023-01-23T14:02:26;27;26;
62054;PMS5003;48653;51.742;-1.256;2023-01-23T14:04:54;24;21;
62054;PMS5003;48653;51.742;-1.256;2023-01-23T14:07:21;25;24;
62054;PMS5003;48653;51.742;-1.256;2023-01-23T14:09:41;30;27;
62054;PMS5003;48653;51.742;-1.256;2023-01-23T14:12:05;29;27;
62054;PMS5003;48653;51.742;-1.256;2023-01-23T14:14:32;32;26;
62054;PMS5003;48653;51.742;-1.256;2023-01-23T14:16:56;27;24;
62054;PMS5003;48653;51.742;-1.256;2023-01-23T14:19:22;25;23;
62054;PMS5003;48653;51.742;-1.256;2023-01-23T14:21:47;28;28;
62054;PMS5003;48653;51.742;-1.256;2023-01-23T14:24:18;26;24;
62054;PMS5003;48653;51.742;-1.256;2023-01-23T14:26:46;31;22;
62054;PMS5003;48653;51.742;-1.256;2023-01-23T14:29:03;25;22;
62054;PMS5003;48653;51.742;-1.256;2023-01-23T14:31:28;24;19;
62054;PMS5003;48653;51.742;-1.256;2023-01-23T14:33:55;16;16;
62054;PMS5003;48653;51.742;-1.256;2023-01-23T14:36:19;13;13;
62054;PMS5003;48653;51.742;-1.256;2023-01-23T14:38:44;22;19;
62054;PMS5003;48653;51.742;-1.256;2023-01-23T14:41:09;20;18;
62054;PMS5003;48653;51.742;-1.256;2023-01-23T14:43:34;15;14;
62054;PMS5003;48653;51.742;-1.256;2023-01-23T14:46:01;20;17;
62054;PMS5003;48653;51.742;-1.256;2023-01-23T14:48:26;17;15;
62054;PMS5003;48653;51.742;-1.256;2023-01-23T14:53:17;23;20;
62054;PMS5003;48653;51.742;-1.256;2023-01-23T14:55:44;22;20;
62054;PMS5003;48653;51.742;-1.256;2023-01-23T14:58:10;25;23;
62054;PMS5003;48653;51.742;-1.256;2023-01-23T15:00:34;20;18;
62054;PMS5003;48653;51.742;-1.256;2023-01-23T15:02:58;18;17;
62054;PMS5003;48653;51.742;-1.256;2023-01-23T15:05:25;23;21;
62054;PMS5003;48653;51.742;-1.256;2023-01-23T15:07:51;23;19;
62054;PMS5003;48653;51.742;-1.256;2023-01-23T15:10:16;25;22;
62054;PMS5003;48653;51.742;-1.256;2023-01-23T15:17:31;21;21;
62054;PMS5003;48653;51.742;-1.256;2023-01-23T15:19:57;23;23;
62054;PMS5003;48653;51.742;-1.256;2023-01-23T15:22:24;23;19;
62054;PMS5003;48653;51.742;-1.256;2023-01-23T15:24:48;24;20;
62054;PMS5003;48653;51.742;-1.256;2023-01-23T15:27:22;18;18;
62054;PMS5003;48653;51.742;-1.256;2023-01-23T15:29:39;20;19;
62054;PMS5003;48653;51.742;-1.256;2023-01-23T15:34:30;21;19;
62054;PMS5003;48653;51.742;-1.256;2023-01-23T15:36:57;20;19;
62054;PMS5003;48653;51.742;-1.256;2023-01-23T15:39:23;27;21;
62054;PMS5003;48653;51.742;-1.256;2023-01-23T15:41:48;21;16;
62054;PMS5003;48653;51.742;-1.256;2023-01-23T15:44:14;25;20;
62054;PMS5003;48653;51.742;-1.256;2023-01-23T15:46:38;23;20;
62054;PMS5003;48653;51.742;-1.256;2023-01-23T15:49:03;28;24;
62054;PMS5003;48653;51.742;-1.256;2023-01-23T15:51:29;19;17;
62054;PMS5003;48653;51.742;-1.256;2023-01-23T15:53:55;27;21;
62054;PMS5003;48653;51.742;-1.256;2023-01-23T15:56:23;20;18;
62054;PMS5003;48653;51.742;-1.256;2023-01-23T15:58:46;24;19;
62054;PMS5003;48653;51.742;-1.256;2023-01-23T16:01:12;18;17;
62054;PMS5003;48653;51.742;-1.256;2023-01-23T16:03:37;21;16;
62054;PMS5003;48653;51.742;-1.256;2023-01-23T16:06:03;24;20;
62054;PMS5003;48653;51.742;-1.256;2023-01-23T16:08:28;22;21;
62054;PMS5003;48653;51.742;-1.256;2023-01-23T16:10:54;21;19;
62054;PMS5003;48653;51.742;-1.256;2023-01-23T16:13:19;18;16;
62054;PMS5003;48653;51.742;-1.256;2023-01-23T16:15:44;20;20;
62054;PMS5003;48653;51.742;-1.256;2023-01-23T16:18:10;22;18;
62054;PMS5003;48653;51.742;-1.256;2023-01-23T16:20:35;18;15;
62054;PMS5003;48653;51.742;-1.256;2023-01-23T16:23:02;20;19;
62054;PMS5003;48653;51.742;-1.256;2023-01-23T16:25:26;33;29;
62054;PMS5003;48653;51.742;-1.256;2023-01-23T16:27:51;46;42;
62054;PMS5003;48653;51.742;-1.256;2023-01-23T16:30:17;42;38;